Aérodrome :
LOGIN :

S'inscrire | Disclaimer

   EN    FR    IT 

 










Légende :    VFR   VFR Marginal   IFR   IFR Intensif   IFR Très Intensif
Visi : 
Plafond : 
>= 8 km
>= 3000ft
5 à 8 km
1000 à 3000 ft
1500m à 5 km
500 à 1000 ft
800 à 1500m
200 à 500 ft
< 800m
< 200 ft
Symboles :   Orages  Brouillard  Fortes neiges  Fortes précipitations  Vent > 20 kt
SIGMETs :   Divers  Orages  Givrage  Turbulence  Onde Orograph.  Cendres Volcan.






- Altitude de l'aérodrome : 154 ft
- Code IATA : SZZ


EPSC - Szczecin Goleniow

DERNIER METAR :
  • 212100Z 10012KT 9999 -DZ FEW006 BKN007 08/08 Q1011

METARs EXPIRÉS :
  • 212030Z 10011KT 8000 -DZ SCT005 BKN006 08/08 Q1011
  • 212000Z 09011KT 9999 -DZ SCT006 BKN008 09/08 Q1011
  • 211930Z 10011KT 9999 -DZ SCT006 BKN010 09/08 Q1011
  • 211900Z 10011KT 9999 -DZ SCT006 OVC007 08/08 Q1011
  • 211830Z 10011KT 9999 SCT007 OVC009 08/08 Q1011

TAF TAF EPSC
Valide du 21 à 18h jusqu'au 22 à 18h UTC


211730Z 2118/2218 09010KT 9999 BKN009
PROB40
TEMPO 2119/2122 4000 -DZ BR BKN004
TEMPO 2122/2203 3000 RADZ BR BKN002
PROB40 2203/2210 1500 BR BKN002
BECMG 2210/2212 BKN010



MET'MAP, la Météo Aéronautique d'un coup d'oeil ! - Copyright ORBIFLY Décembre 2007 - Disclaimer

ORBIFLY MET'MAP TEAM :

Programmation & Développement : Alexandra Zaïnal
Conception & Développement : Baudouin d'Aumeries
Co-Programmation & Développement : Marc-Olivier Méhu
Soutien technique & logistique : Manuel Goepfert

Contact : metmap@orbifly.com




SOURCES & CREDITS :

   NOAA